sensor_id;sensor_type;location;lat;lon;timestamp;temperature;humidity
32107;DHT22;18622;51.998;10.440;2023-05-15T02:49:57;11.10;99.90
32107;DHT22;18622;51.998;10.440;2023-05-15T02:52:25;11.10;99.90
32107;DHT22;18622;51.998;10.440;2023-05-15T02:54:53;11.10;99.90
32107;DHT22;18622;51.998;10.440;2023-05-15T02:57:21;11.10;99.90
32107;DHT22;18622;51.998;10.440;2023-05-15T02:59:48;11.00;99.90
32107;DHT22;18622;51.998;10.440;2023-05-15T03:02:16;11.00;99.90
32107;DHT22;18622;51.998;10.440;2023-05-15T03:04:44;10.90;99.90
32107;DHT22;18622;51.998;10.440;2023-05-15T03:07:12;10.90;99.90
32107;DHT22;18622;51.998;10.440;2023-05-15T03:09:40;10.90;99.90
32107;DHT22;18622;51.998;10.440;2023-05-15T03:12:09;10.90;99.90
32107;DHT22;18622;51.998;10.440;2023-05-15T03:14:37;10.90;99.90
32107;DHT22;18622;51.998;10.440;2023-05-15T03:17:05;10.90;99.90
32107;DHT22;18622;51.998;10.440;2023-05-15T03:19:33;10.90;99.90
32107;DHT22;18622;51.998;10.440;2023-05-15T03:22:01;10.90;99.90
32107;DHT22;18622;51.998;10.440;2023-05-15T03:24:28;11.00;99.90
32107;DHT22;18622;51.998;10.440;2023-05-15T03:26:56;11.10;99.90
32107;DHT22;18622;51.998;10.440;2023-05-15T03:29:24;11.20;99.90
32107;DHT22;18622;51.998;10.440;2023-05-15T03:31:52;11.20;99.90
32107;DHT22;18622;51.998;10.440;2023-05-15T03:34:19;11.30;99.90
32107;DHT22;18622;51.998;10.440;2023-05-15T03:36:47;11.40;99.90
32107;DHT22;18622;51.998;10.440;2023-05-15T03:39:15;11.50;99.90
32107;DHT22;18622;51.998;10.440;2023-05-15T03:41:43;11.60;99.90
32107;DHT22;18622;51.998;10.440;2023-05-15T03:44:11;11.60;99.90
32107;DHT22;18622;51.998;10.440;2023-05-15T03:46:38;11.70;99.90
32107;DHT22;18622;51.998;10.440;2023-05-15T03:49:06;11.70;99.90
32107;DHT22;18622;51.998;10.440;2023-05-15T03:51:34;11.70;99.90
32107;DHT22;18622;51.998;10.440;2023-05-15T03:54:02;11.80;99.90
32107;DHT22;18622;51.998;10.440;2023-05-15T03:56:31;11.80;99.90
32107;DHT22;18622;51.998;10.440;2023-05-15T03:58:59;11.80;99.90
32107;DHT22;18622;51.998;10.440;2023-05-15T04:01:27;11.80;99.90
32107;DHT22;18622;51.998;10.440;2023-05-15T04:03:54;11.80;99.90
32107;DHT22;18622;51.998;10.440;2023-05-15T04:06:22;11.80;99.90
32107;DHT22;18622;51.998;10.440;2023-05-15T04:08:50;11.80;99.90
32107;DHT22;18622;51.998;10.440;2023-05-15T04:11:18;11.90;99.90
32107;DHT22;18622;51.998;10.440;2023-05-15T04:13:47;11.90;99.90
32107;DHT22;18622;51.998;10.440;2023-05-15T04:16:14;12.10;99.90
32107;DHT22;18622;51.998;10.440;2023-05-15T04:18:42;12.20;99.90
32107;DHT22;18622;51.998;10.440;2023-05-15T04:21:10;12.50;99.90
32107;DHT22;18622;51.998;10.440;2023-05-15T04:23:38;12.70;99.90
32107;DHT22;18622;51.998;10.440;2023-05-15T04:26:07;13.00;99.90
32107;DHT22;18622;51.998;10.440;2023-05-15T04:28:35;13.30;99.90
32107;DHT22;18622;51.998;10.440;2023-05-15T04:31:02;13.50;99.70
32107;DHT22;18622;51.998;10.440;2023-05-15T04:33:30;13.70;99.30
32107;DHT22;18622;51.998;10.440;2023-05-15T04:35:58;13.80;99.10
32107;DHT22;18622;51.998;10.440;2023-05-15T04:38:26;14.00;98.50
32107;DHT22;18622;51.998;10.440;2023-05-15T04:40:54;14.10;98.30
32107;DHT22;18622;51.998;10.440;2023-05-15T04:43:22;14.20;98.00
32107;DHT22;18622;51.998;10.440;2023-05-15T04:45:49;14.30;97.70
32107;DHT22;18622;51.998;10.440;2023-05-15T04:48:17;14.40;97.50
32107;DHT22;18622;51.998;10.440;2023-05-15T04:50:45;14.40;96.90
32107;DHT22;18622;51.998;10.440;2023-05-15T04:53:13;14.50;96.70
32107;DHT22;18622;51.998;10.440;2023-05-15T04:55:41;14.60;96.30
32107;DHT22;18622;51.998;10.440;2023-05-15T04:58:08;14.70;96.00
32107;DHT22;18622;51.998;10.440;2023-05-15T05:00:36;14.80;95.90
32107;DHT22;18622;51.998;10.440;2023-05-15T05:03:04;14.90;95.70
32107;DHT22;18622;51.998;10.440;2023-05-15T05:05:32;14.90;95.40
32107;DHT22;18622;51.998;10.440;2023-05-15T05:07:59;15.00;95.00
32107;DHT22;18622;51.998;10.440;2023-05-15T05:10:27;15.10;95.10
32107;DHT22;18622;51.998;10.440;2023-05-15T05:12:55;15.30;95.00
32107;DHT22;18622;51.998;10.440;2023-05-15T05:15:23;15.30;94.70
32107;DHT22;18622;51.998;10.440;2023-05-15T05:17:52;15.40;94.80
32107;DHT22;18622;51.998;10.440;2023-05-15T05:20:19;15.50;94.90
32107;DHT22;18622;51.998;10.440;2023-05-15T05:22:47;15.50;95.30
32107;DHT22;18622;51.998;10.440;2023-05-15T05:25:15;15.60;95.40
32107;DHT22;18622;51.998;10.440;2023-05-15T05:27:43;15.60;95.40
32107;DHT22;18622;51.998;10.440;2023-05-15T14:17:14;28.80;43.00
32107;DHT22;18622;51.998;10.440;2023-05-15T14:19:42;27.90;43.50
32107;DHT22;18622;51.998;10.440;2023-05-15T14:22:10;27.20;44.80
32107;DHT22;18622;51.998;10.440;2023-05-15T14:24:38;26.60;45.10
32107;DHT22;18622;51.998;10.440;2023-05-15T14:27:06;26.10;46.70
32107;DHT22;18622;51.998;10.440;2023-05-15T14:29:34;26.00;47.00
32107;DHT22;18622;51.998;10.440;2023-05-15T14:32:02;25.90;47.70
32107;DHT22;18622;51.998;10.440;2023-05-15T14:34:30;25.80;47.60
32107;DHT22;18622;51.998;10.440;2023-05-15T14:36:57;25.50;47.50
32107;DHT22;18622;51.998;10.440;2023-05-15T14:39:25;24.90;48.20
32107;DHT22;18622;51.998;10.440;2023-05-15T14:41:53;24.40;49.30
32107;DHT22;18622;51.998;10.440;2023-05-15T14:44:21;24.00;49.90
32107;DHT22;18622;51.998;10.440;2023-05-15T14:47:03;23.60;50.50
32107;DHT22;18622;51.998;10.440;2023-05-15T14:49:19;23.40;51.20
32107;DHT22;18622;51.998;10.440;2023-05-15T14:51:47;23.20;51.60
32107;DHT22;18622;51.998;10.440;2023-05-15T14:54:15;23.10;52.10
32107;DHT22;18622;51.998;10.440;2023-05-15T14:56:43;23.10;52.80
32107;DHT22;18622;51.998;10.440;2023-05-15T14:59:10;23.30;53.10
32107;DHT22;18622;51.998;10.440;2023-05-15T15:01:40;23.50;53.00
32107;DHT22;18622;51.998;10.440;2023-05-15T15:04:07;23.70;51.30
32107;DHT22;18622;51.998;10.440;2023-05-15T15:06:35;23.80;50.60
32107;DHT22;18622;51.998;10.440;2023-05-15T15:09:05;24.10;49.60
32107;DHT22;18622;51.998;10.440;2023-05-15T15:11:32;24.40;49.40
32107;DHT22;18622;51.998;10.440;2023-05-15T15:13:59;24.80;48.20
32107;DHT22;18622;51.998;10.440;2023-05-15T15:16:28;25.20;47.80
32107;DHT22;18622;51.998;10.440;2023-05-15T15:18:55;25.60;46.70
32107;DHT22;18622;51.998;10.440;2023-05-15T15:21:23;25.80;46.40
32107;DHT22;18622;51.998;10.440;2023-05-15T15:23:51;25.80;46.90
32107;DHT22;18622;51.998;10.440;2023-05-15T15:26:20;25.90;46.60
32107;DHT22;18622;51.998;10.440;2023-05-15T15:28:48;26.40;46.90
32107;DHT22;18622;51.998;10.440;2023-05-15T15:31:16;27.30;46.70
32107;DHT22;18622;51.998;10.440;2023-05-15T15:33:43;28.20;46.30
32107;DHT22;18622;51.998;10.440;2023-05-15T15:36:11;28.90;45.10
32107;DHT22;18622;51.998;10.440;2023-05-15T15:38:39;29.20;43.90
32107;DHT22;18622;51.998;10.440;2023-05-15T15:41:08;29.00;44.40
32107;DHT22;18622;51.998;10.440;2023-05-15T15:43:35;29.00;45.40
32107;DHT22;18622;51.998;10.440;2023-05-15T15:46:03;29.20;43.70
32107;DHT22;18622;51.998;10.440;2023-05-15T15:48:31;29.30;43.20
32107;DHT22;18622;51.998;10.440;2023-05-15T15:50:58;29.30;43.70
32107;DHT22;18622;51.998;10.440;2023-05-15T15:53:26;29.00;44.10
32107;DHT22;18622;51.998;10.440;2023-05-15T15:55:54;28.40;44.20
32107;DHT22;18622;51.998;10.440;2023-05-15T15:58:22;27.70;44.90
32107;DHT22;18622;51.998;10.440;2023-05-15T16:00:50;26.90;46.10
32107;DHT22;18622;51.998;10.440;2023-05-15T16:03:18;26.10;47.10
32107;DHT22;18622;51.998;10.440;2023-05-15T16:05:45;25.40;48.50
32107;DHT22;18622;51.998;10.440;2023-05-15T16:08:13;24.80;47.90
32107;DHT22;18622;51.998;10.440;2023-05-15T16:10:41;24.30;48.00
32107;DHT22;18622;51.998;10.440;2023-05-15T16:13:10;24.00;48.50
32107;DHT22;18622;51.998;10.440;2023-05-15T16:15:38;23.80;48.30
32107;DHT22;18622;51.998;10.440;2023-05-15T16:18:06;23.80;48.10
32107;DHT22;18622;51.998;10.440;2023-05-15T16:20:33;23.80;48.10
32107;DHT22;18622;51.998;10.440;2023-05-15T16:23:01;23.90;48.00
32107;DHT22;18622;51.998;10.440;2023-05-15T16:25:29;23.90;48.80
32107;DHT22;18622;51.998;10.440;2023-05-15T16:27:57;23.70;52.60
32107;DHT22;18622;51.998;10.440;2023-05-15T16:30:25;23.50;54.30
32107;DHT22;18622;51.998;10.440;2023-05-15T16:32:52;23.30;54.30
32107;DHT22;18622;51.998;10.440;2023-05-15T16:35:20;23.60;55.60
32107;DHT22;18622;51.998;10.440;2023-05-15T16:37:48;24.60;54.70
32107;DHT22;18622;51.998;10.440;2023-05-15T16:40:16;25.80;53.10
32107;DHT22;18622;51.998;10.440;2023-05-15T16:42:44;26.60;51.40
32107;DHT22;18622;51.998;10.440;2023-05-15T16:45:11;26.60;50.50
32107;DHT22;18622;51.998;10.440;2023-05-15T16:47:39;26.30;51.20
32107;DHT22;18622;51.998;10.440;2023-05-15T16:50:07;26.20;51.30
32107;DHT22;18622;51.998;10.440;2023-05-15T16:52:35;26.20;51.40
32107;DHT22;18622;51.998;10.440;2023-05-15T16:55:05;25.90;51.50
32107;DHT22;18622;51.998;10.440;2023-05-15T16:57:32;25.70;52.80
32107;DHT22;18622;51.998;10.440;2023-05-15T17:00:00;25.90;52.10
32107;DHT22;18622;51.998;10.440;2023-05-15T17:02:28;25.60;51.60
32107;DHT22;18622;51.998;10.440;2023-05-15T17:04:56;24.90;52.20
32107;DHT22;18622;51.998;10.440;2023-05-15T17:07:24;24.00;54.00
32107;DHT22;18622;51.998;10.440;2023-05-15T17:09:51;23.80;54.30
32107;DHT22;18622;51.998;10.440;2023-05-15T17:12:20;23.90;53.50
32107;DHT22;18622;51.998;10.440;2023-05-15T17:14:48;23.70;53.40
32107;DHT22;18622;51.998;10.440;2023-05-15T17:17:16;23.20;54.90
32107;DHT22;18622;51.998;10.440;2023-05-15T17:19:44;22.70;55.80
32107;DHT22;18622;51.998;10.440;2023-05-15T17:22:12;22.40;56.80
32107;DHT22;18622;51.998;10.440;2023-05-15T17:24:40;21.90;57.30
32107;DHT22;18622;51.998;10.440;2023-05-15T17:27:08;21.50;58.10
32107;DHT22;18622;51.998;10.440;2023-05-15T17:29:35;21.00;59.40
32107;DHT22;18622;51.998;10.440;2023-05-15T17:32:03;20.60;60.50
32107;DHT22;18622;51.998;10.440;2023-05-15T17:34:31;20.20;61.30
32107;DHT22;18622;51.998;10.440;2023-05-15T17:36:59;19.80;62.40
32107;DHT22;18622;51.998;10.440;2023-05-15T17:39:27;19.50;63.10
32107;DHT22;18622;51.998;10.440;2023-05-15T17:41:55;19.30;64.00
32107;DHT22;18622;51.998;10.440;2023-05-15T17:44:23;19.00;64.10
32107;DHT22;18622;51.998;10.440;2023-05-15T17:47:00;18.80;65.00
32107;DHT22;18622;51.998;10.440;2023-05-15T17:49:25;18.60;66.00
32107;DHT22;18622;51.998;10.440;2023-05-15T17:51:53;18.40;65.90
32107;DHT22;18622;51.998;10.440;2023-05-15T17:54:21;18.30;66.80
32107;DHT22;18622;51.998;10.440;2023-05-15T17:56:49;18.10;67.30
32107;DHT22;18622;51.998;10.440;2023-05-15T17:59:17;18.00;68.20
32107;DHT22;18622;51.998;10.440;2023-05-15T18:01:44;17.90;68.70
32107;DHT22;18622;51.998;10.440;2023-05-15T18:04:12;17.80;69.30
32107;DHT22;18622;51.998;10.440;2023-05-15T18:06:40;17.70;69.80
32107;DHT22;18622;51.998;10.440;2023-05-15T18:09:08;17.60;70.50
32107;DHT22;18622;51.998;10.440;2023-05-15T18:11:36;17.40;71.40
32107;DHT22;18622;51.998;10.440;2023-05-15T18:14:04;17.30;72.40
32107;DHT22;18622;51.998;10.440;2023-05-15T18:16:32;17.20;73.40
32107;DHT22;18622;51.998;10.440;2023-05-15T18:19:00;17.10;73.80
32107;DHT22;18622;51.998;10.440;2023-05-15T18:21:27;17.00;74.20
32107;DHT22;18622;51.998;10.440;2023-05-15T18:23:55;17.00;73.90
32107;DHT22;18622;51.998;10.440;2023-05-15T18:26:23;17.00;74.30
32107;DHT22;18622;51.998;10.440;2023-05-15T18:28:51;17.00;74.70
32107;DHT22;18622;51.998;10.440;2023-05-15T18:31:19;16.90;75.10
32107;DHT22;18622;51.998;10.440;2023-05-15T18:33:47;16.80;75.40
32107;DHT22;18622;51.998;10.440;2023-05-15T18:36:14;16.90;75.90
32107;DHT22;18622;51.998;10.440;2023-05-15T18:38:42;16.80;76.20
32107;DHT22;18622;51.998;10.440;2023-05-15T18:41:10;16.80;76.40
32107;DHT22;18622;51.998;10.440;2023-05-15T18:43:38;16.80;77.10
32107;DHT22;18622;51.998;10.440;2023-05-15T18:46:06;16.70;77.50
32107;DHT22;18622;51.998;10.440;2023-05-15T18:48:34;16.60;78.10
32107;DHT22;18622;51.998;10.440;2023-05-15T18:51:02;16.60;78.50
32107;DHT22;18622;51.998;10.440;2023-05-15T18:53:29;16.60;78.90
32107;DHT22;18622;51.998;10.440;2023-05-15T18:55:57;16.60;79.20
32107;DHT22;18622;51.998;10.440;2023-05-15T18:58:25;16.50;79.40
32107;DHT22;18622;51.998;10.440;2023-05-15T19:00:53;16.50;79.30
32107;DHT22;18622;51.998;10.440;2023-05-15T19:03:21;16.50;79.30
32107;DHT22;18622;51.998;10.440;2023-05-15T19:05:50;16.50;79.80
32107;DHT22;18622;51.998;10.440;2023-05-15T19:08:18;16.50;80.40
32107;DHT22;18622;51.998;10.440;2023-05-15T19:10:51;16.50;80.60
32107;DHT22;18622;51.998;10.440;2023-05-15T19:13:18;16.40;80.80
32107;DHT22;18622;51.998;10.440;2023-05-15T19:15:50;16.40;81.00
32107;DHT22;18622;51.998;10.440;2023-05-15T19:18:18;16.30;81.50
32107;DHT22;18622;51.998;10.440;2023-05-15T19:20:47;16.30;81.50
32107;DHT22;18622;51.998;10.440;2023-05-15T19:23:22;16.30;81.70
32107;DHT22;18622;51.998;10.440;2023-05-15T19:25:50;16.30;81.70
32107;DHT22;18622;51.998;10.440;2023-05-15T19:28:18;16.30;82.00
32107;DHT22;18622;51.998;10.440;2023-05-15T19:30:46;16.20;82.40
32107;DHT22;18622;51.998;10.440;2023-05-15T19:33:16;16.20;82.40
32107;DHT22;18622;51.998;10.440;2023-05-15T19:35:44;16.20;82.70
32107;DHT22;18622;51.998;10.440;2023-05-15T19:38:12;16.20;82.70
32107;DHT22;18622;51.998;10.440;2023-05-15T19:40:42;16.30;82.80
32107;DHT22;18622;51.998;10.440;2023-05-15T19:43:10;16.30;82.70
32107;DHT22;18622;51.998;10.440;2023-05-15T19:45:40;16.30;82.70
32107;DHT22;18622;51.998;10.440;2023-05-15T19:48:08;16.30;82.60
32107;DHT22;18622;51.998;10.440;2023-05-15T19:50:38;16.30;82.50
32107;DHT22;18622;51.998;10.440;2023-05-15T19:53:06;16.30;82.40
32107;DHT22;18622;51.998;10.440;2023-05-15T19:55:34;16.40;82.20
32107;DHT22;18622;51.998;10.440;2023-05-15T19:58:02;16.40;81.90
32107;DHT22;18622;51.998;10.440;2023-05-15T20:00:30;16.30;81.20
32107;DHT22;18622;51.998;10.440;2023-05-15T20:02:58;16.40;81.60
32107;DHT22;18622;51.998;10.440;2023-05-15T20:05:26;16.30;81.10
32107;DHT22;18622;51.998;10.440;2023-05-15T20:07:54;16.40;81.00
32107;DHT22;18622;51.998;10.440;2023-05-15T20:10:23;16.30;80.80
32107;DHT22;18622;51.998;10.440;2023-05-15T20:12:50;16.30;80.90
32107;DHT22;18622;51.998;10.440;2023-05-15T20:15:18;16.20;81.10
32107;DHT22;18622;51.998;10.440;2023-05-15T20:17:46;16.20;81.00
32107;DHT22;18622;51.998;10.440;2023-05-15T20:20:14;16.10;80.90
32107;DHT22;18622;51.998;10.440;2023-05-15T20:22:43;16.00;81.10
32107;DHT22;18622;51.998;10.440;2023-05-15T20:25:11;15.90;80.90
32107;DHT22;18622;51.998;10.440;2023-05-15T20:27:40;15.80;81.60
32107;DHT22;18622;51.998;10.440;2023-05-15T20:30:08;15.80;81.00
32107;DHT22;18622;51.998;10.440;2023-05-15T20:35:06;15.70;80.90
32107;DHT22;18622;51.998;10.440;2023-05-15T20:37:34;15.70;80.80
32107;DHT22;18622;51.998;10.440;2023-05-15T20:40:04;15.60;80.50
32107;DHT22;18622;51.998;10.440;2023-05-15T20:42:32;15.60;80.10
32107;DHT22;18622;51.998;10.440;2023-05-15T20:44:59;15.60;79.90
